sensor_id;sensor_type;location;lat;lon;timestamp;P1;durP1;ratioP1;P2;durP2;ratioP2
58864;SDS011;45702;52.982;6.658;2022-07-19T00:00:09;12.52;;;7.68;;
58864;SDS011;45702;52.982;6.658;2022-07-19T00:02:37;14.32;;;7.75;;
58864;SDS011;45702;52.982;6.658;2022-07-19T00:05:03;12.95;;;7.32;;
58864;SDS011;45702;52.982;6.658;2022-07-19T00:07:30;14.48;;;7.45;;
58864;SDS011;45702;52.982;6.658;2022-07-19T00:09:56;11.00;;;7.68;;
58864;SDS011;45702;52.982;6.658;2022-07-19T00:12:22;12.68;;;7.22;;
58864;SDS011;45702;52.982;6.658;2022-07-19T00:14:47;15.63;;;8.27;;
58864;SDS011;45702;52.982;6.658;2022-07-19T00:17:13;15.95;;;7.53;;
58864;SDS011;45702;52.982;6.658;2022-07-19T00:19:39;13.50;;;7.40;;
58864;SDS011;45702;52.982;6.658;2022-07-19T00:22:04;12.40;;;7.65;;
58864;SDS011;45702;52.982;6.658;2022-07-19T00:24:31;12.30;;;7.57;;
58864;SDS011;45702;52.982;6.658;2022-07-19T00:26:57;12.45;;;6.90;;
58864;SDS011;45702;52.982;6.658;2022-07-19T00:29:23;12.32;;;7.88;;
58864;SDS011;45702;52.982;6.658;2022-07-19T00:31:49;14.90;;;7.47;;
58864;SDS011;45702;52.982;6.658;2022-07-19T00:34:14;12.70;;;7.13;;
58864;SDS011;45702;52.982;6.658;2022-07-19T00:36:40;13.50;;;7.80;;
58864;SDS011;45702;52.982;6.658;2022-07-19T00:39:06;13.13;;;7.50;;
58864;SDS011;45702;52.982;6.658;2022-07-19T00:41:32;13.88;;;7.97;;
58864;SDS011;45702;52.982;6.658;2022-07-19T00:44:03;13.75;;;7.75;;
58864;SDS011;45702;52.982;6.658;2022-07-19T00:46:28;13.18;;;7.88;;
58864;SDS011;45702;52.982;6.658;2022-07-19T00:48:54;11.57;;;7.03;;
58864;SDS011;45702;52.982;6.658;2022-07-19T00:51:20;11.63;;;7.45;;
58864;SDS011;45702;52.982;6.658;2022-07-19T00:53:46;11.52;;;7.35;;
58864;SDS011;45702;52.982;6.658;2022-07-19T00:56:13;16.23;;;7.88;;
58864;SDS011;45702;52.982;6.658;2022-07-19T00:58:39;15.52;;;7.90;;
58864;SDS011;45702;52.982;6.658;2022-07-19T01:01:06;16.63;;;8.30;;
58864;SDS011;45702;52.982;6.658;2022-07-19T01:03:38;14.38;;;8.70;;
58864;SDS011;45702;52.982;6.658;2022-07-19T01:06:05;13.98;;;7.63;;
58864;SDS011;45702;52.982;6.658;2022-07-19T01:08:32;12.55;;;7.32;;
58864;SDS011;45702;52.982;6.658;2022-07-19T01:10:57;13.00;;;8.20;;
58864;SDS011;45702;52.982;6.658;2022-07-19T01:13:24;19.13;;;8.80;;
58864;SDS011;45702;52.982;6.658;2022-07-19T01:15:50;16.27;;;7.65;;
58864;SDS011;45702;52.982;6.658;2022-07-19T01:18:15;20.17;;;8.25;;
58864;SDS011;45702;52.982;6.658;2022-07-19T01:20:41;14.75;;;7.85;;
58864;SDS011;45702;52.982;6.658;2022-07-19T01:23:07;15.73;;;8.35;;
58864;SDS011;45702;52.982;6.658;2022-07-19T01:25:34;14.75;;;8.23;;
58864;SDS011;45702;52.982;6.658;2022-07-19T01:28:02;11.43;;;7.95;;
58864;SDS011;45702;52.982;6.658;2022-07-19T01:30:30;15.65;;;8.35;;
58864;SDS011;45702;52.982;6.658;2022-07-19T01:32:57;15.40;;;8.25;;
58864;SDS011;45702;52.982;6.658;2022-07-19T01:35:22;13.98;;;8.18;;
58864;SDS011;45702;52.982;6.658;2022-07-19T01:37:48;12.82;;;7.78;;
58864;SDS011;45702;52.982;6.658;2022-07-19T01:40:16;15.43;;;8.15;;
58864;SDS011;45702;52.982;6.658;2022-07-19T01:42:42;16.58;;;8.55;;
58864;SDS011;45702;52.982;6.658;2022-07-19T01:45:09;16.98;;;8.25;;
58864;SDS011;45702;52.982;6.658;2022-07-19T01:47:36;14.65;;;8.90;;
58864;SDS011;45702;52.982;6.658;2022-07-19T01:50:03;14.25;;;7.65;;
58864;SDS011;45702;52.982;6.658;2022-07-19T01:52:30;15.30;;;8.53;;
58864;SDS011;45702;52.982;6.658;2022-07-19T01:54:55;11.15;;;7.47;;
58864;SDS011;45702;52.982;6.658;2022-07-19T01:57:21;13.95;;;8.00;;
58864;SDS011;45702;52.982;6.658;2022-07-19T01:59:47;12.27;;;7.60;;
58864;SDS011;45702;52.982;6.658;2022-07-19T02:02:12;12.40;;;8.02;;
58864;SDS011;45702;52.982;6.658;2022-07-19T02:04:38;15.00;;;8.73;;
58864;SDS011;45702;52.982;6.658;2022-07-19T02:07:04;13.77;;;8.55;;
58864;SDS011;45702;52.982;6.658;2022-07-19T02:09:29;13.40;;;8.00;;
58864;SDS011;45702;52.982;6.658;2022-07-19T02:11:55;14.07;;;8.20;;
58864;SDS011;45702;52.982;6.658;2022-07-19T02:14:21;14.98;;;8.20;;
58864;SDS011;45702;52.982;6.658;2022-07-19T02:16:46;18.45;;;9.10;;
58864;SDS011;45702;52.982;6.658;2022-07-19T02:19:12;14.90;;;8.32;;
58864;SDS011;45702;52.982;6.658;2022-07-19T02:21:38;13.70;;;8.30;;
58864;SDS011;45702;52.982;6.658;2022-07-19T02:24:05;16.75;;;8.48;;
58864;SDS011;45702;52.982;6.658;2022-07-19T02:26:32;13.27;;;7.55;;
58864;SDS011;45702;52.982;6.658;2022-07-19T02:28:59;13.95;;;8.27;;
58864;SDS011;45702;52.982;6.658;2022-07-19T02:31:24;13.13;;;8.48;;
58864;SDS011;45702;52.982;6.658;2022-07-19T02:33:50;13.57;;;8.45;;
58864;SDS011;45702;52.982;6.658;2022-07-19T02:36:16;14.50;;;7.97;;
58864;SDS011;45702;52.982;6.658;2022-07-19T02:38:42;13.32;;;8.38;;
58864;SDS011;45702;52.982;6.658;2022-07-19T02:41:08;13.05;;;8.15;;
58864;SDS011;45702;52.982;6.658;2022-07-19T02:43:34;17.10;;;8.57;;
58864;SDS011;45702;52.982;6.658;2022-07-19T02:46:00;13.00;;;8.65;;
58864;SDS011;45702;52.982;6.658;2022-07-19T02:48:25;13.25;;;7.88;;
58864;SDS011;45702;52.982;6.658;2022-07-19T02:50:51;16.58;;;8.88;;
58864;SDS011;45702;52.982;6.658;2022-07-19T02:53:17;13.63;;;8.18;;
58864;SDS011;45702;52.982;6.658;2022-07-19T02:55:43;17.40;;;8.32;;
58864;SDS011;45702;52.982;6.658;2022-07-19T02:58:08;15.02;;;8.10;;
58864;SDS011;45702;52.982;6.658;2022-07-19T03:00:34;18.45;;;9.00;;
58864;SDS011;45702;52.982;6.658;2022-07-19T03:03:00;24.30;;;10.18;;
58864;SDS011;45702;52.982;6.658;2022-07-19T03:05:45;20.70;;;11.30;;
58864;SDS011;45702;52.982;6.658;2022-07-19T03:08:11;20.55;;;10.95;;
58864;SDS011;45702;52.982;6.658;2022-07-19T03:10:36;27.23;;;13.45;;
58864;SDS011;45702;52.982;6.658;2022-07-19T03:13:02;27.75;;;14.45;;
58864;SDS011;45702;52.982;6.658;2022-07-19T03:15:28;40.92;;;18.90;;
58864;SDS011;45702;52.982;6.658;2022-07-19T03:17:54;50.20;;;23.10;;
58864;SDS011;45702;52.982;6.658;2022-07-19T03:20:20;47.72;;;22.20;;
58864;SDS011;45702;52.982;6.658;2022-07-19T03:22:46;67.28;;;30.85;;
58864;SDS011;45702;52.982;6.658;2022-07-19T03:25:11;71.38;;;32.58;;
58864;SDS011;45702;52.982;6.658;2022-07-19T03:27:37;74.00;;;33.72;;
58864;SDS011;45702;52.982;6.658;2022-07-19T03:30:03;78.72;;;34.60;;
58864;SDS011;45702;52.982;6.658;2022-07-19T03:32:29;66.70;;;28.55;;
58864;SDS011;45702;52.982;6.658;2022-07-19T03:34:55;56.75;;;25.23;;
58864;SDS011;45702;52.982;6.658;2022-07-19T03:37:21;55.15;;;24.30;;
58864;SDS011;45702;52.982;6.658;2022-07-19T03:39:47;45.90;;;19.70;;
58864;SDS011;45702;52.982;6.658;2022-07-19T03:42:12;37.13;;;17.27;;
58864;SDS011;45702;52.982;6.658;2022-07-19T03:44:38;35.78;;;16.58;;
58864;SDS011;45702;52.982;6.658;2022-07-19T03:47:03;31.90;;;16.33;;
58864;SDS011;45702;52.982;6.658;2022-07-19T03:49:29;33.03;;;15.32;;
58864;SDS011;45702;52.982;6.658;2022-07-19T03:51:55;27.70;;;13.18;;
58864;SDS011;45702;52.982;6.658;2022-07-19T03:54:20;27.13;;;13.73;;
58864;SDS011;45702;52.982;6.658;2022-07-19T03:56:46;29.63;;;14.52;;
58864;SDS011;45702;52.982;6.658;2022-07-19T03:59:12;25.30;;;13.45;;
58864;SDS011;45702;52.982;6.658;2022-07-19T04:01:37;30.63;;;14.68;;
58864;SDS011;45702;52.982;6.658;2022-07-19T04:04:04;30.83;;;14.55;;
58864;SDS011;45702;52.982;6.658;2022-07-19T04:06:29;31.08;;;14.88;;
58864;SDS011;45702;52.982;6.658;2022-07-19T04:08:55;33.67;;;15.63;;
58864;SDS011;45702;52.982;6.658;2022-07-19T04:11:21;35.72;;;15.95;;
58864;SDS011;45702;52.982;6.658;2022-07-19T04:13:47;36.40;;;16.27;;
58864;SDS011;45702;52.982;6.658;2022-07-19T04:16:13;36.25;;;16.67;;
58864;SDS011;45702;52.982;6.658;2022-07-19T04:18:38;30.20;;;15.77;;
58864;SDS011;45702;52.982;6.658;2022-07-19T04:21:04;31.60;;;14.45;;
58864;SDS011;45702;52.982;6.658;2022-07-19T04:23:30;36.00;;;15.77;;
58864;SDS011;45702;52.982;6.658;2022-07-19T04:25:56;30.77;;;15.25;;
58864;SDS011;45702;52.982;6.658;2022-07-19T04:28:22;28.15;;;14.38;;
58864;SDS011;45702;52.982;6.658;2022-07-19T04:30:48;31.90;;;16.27;;
58864;SDS011;45702;52.982;6.658;2022-07-19T04:33:15;34.22;;;15.70;;
58864;SDS011;45702;52.982;6.658;2022-07-19T04:35:41;30.65;;;15.57;;
58864;SDS011;45702;52.982;6.658;2022-07-19T04:38:07;36.97;;;15.27;;
58864;SDS011;45702;52.982;6.658;2022-07-19T04:40:33;31.67;;;15.45;;
58864;SDS011;45702;52.982;6.658;2022-07-19T04:42:58;25.13;;;13.18;;
58864;SDS011;45702;52.982;6.658;2022-07-19T04:45:24;25.13;;;12.77;;
58864;SDS011;45702;52.982;6.658;2022-07-19T04:47:50;24.23;;;12.75;;
58864;SDS011;45702;52.982;6.658;2022-07-19T04:50:16;27.45;;;12.95;;
58864;SDS011;45702;52.982;6.658;2022-07-19T04:52:41;25.85;;;12.88;;
58864;SDS011;45702;52.982;6.658;2022-07-19T04:55:07;25.73;;;12.15;;
58864;SDS011;45702;52.982;6.658;2022-07-19T04:57:33;22.63;;;12.25;;
58864;SDS011;45702;52.982;6.658;2022-07-19T04:59:59;22.95;;;11.27;;
58864;SDS011;45702;52.982;6.658;2022-07-19T05:02:24;23.02;;;11.73;;
58864;SDS011;45702;52.982;6.658;2022-07-19T05:04:50;25.02;;;11.70;;
58864;SDS011;45702;52.982;6.658;2022-07-19T05:07:16;28.48;;;12.48;;
58864;SDS011;45702;52.982;6.658;2022-07-19T05:09:42;21.25;;;11.45;;
58864;SDS011;45702;52.982;6.658;2022-07-19T05:12:09;23.52;;;11.32;;
58864;SDS011;45702;52.982;6.658;2022-07-19T05:14:36;23.45;;;11.10;;
58864;SDS011;45702;52.982;6.658;2022-07-19T05:17:01;19.23;;;10.70;;
58864;SDS011;45702;52.982;6.658;2022-07-19T05:19:27;20.38;;;10.50;;
58864;SDS011;45702;52.982;6.658;2022-07-19T05:21:53;24.17;;;10.45;;
58864;SDS011;45702;52.982;6.658;2022-07-19T05:24:19;25.73;;;11.30;;
58864;SDS011;45702;52.982;6.658;2022-07-19T05:26:44;23.50;;;11.23;;
58864;SDS011;45702;52.982;6.658;2022-07-19T05:29:10;23.80;;;11.18;;
58864;SDS011;45702;52.982;6.658;2022-07-19T05:31:36;20.92;;;11.52;;
58864;SDS011;45702;52.982;6.658;2022-07-19T05:34:02;22.25;;;10.82;;
58864;SDS011;45702;52.982;6.658;2022-07-19T05:36:28;21.48;;;10.13;;
58864;SDS011;45702;52.982;6.658;2022-07-19T05:38:54;20.65;;;9.50;;
58864;SDS011;45702;52.982;6.658;2022-07-19T05:41:20;19.05;;;9.48;;
58864;SDS011;45702;52.982;6.658;2022-07-19T05:43:49;17.77;;;9.13;;
58864;SDS011;45702;52.982;6.658;2022-07-19T05:46:17;14.73;;;8.57;;
58864;SDS011;45702;52.982;6.658;2022-07-19T05:48:42;15.27;;;7.93;;
58864;SDS011;45702;52.982;6.658;2022-07-19T05:51:08;14.77;;;8.38;;
58864;SDS011;45702;52.982;6.658;2022-07-19T05:53:35;14.57;;;7.70;;
58864;SDS011;45702;52.982;6.658;2022-07-19T05:56:01;15.35;;;8.10;;
58864;SDS011;45702;52.982;6.658;2022-07-19T05:58:27;14.15;;;7.78;;
58864;SDS011;45702;52.982;6.658;2022-07-19T06:00:53;15.88;;;7.40;;
58864;SDS011;45702;52.982;6.658;2022-07-19T06:03:37;17.85;;;8.05;;
58864;SDS011;45702;52.982;6.658;2022-07-19T06:06:03;16.48;;;8.10;;
58864;SDS011;45702;52.982;6.658;2022-07-19T06:08:29;14.65;;;7.88;;
58864;SDS011;45702;52.982;6.658;2022-07-19T06:10:54;13.95;;;7.82;;
58864;SDS011;45702;52.982;6.658;2022-07-19T06:13:20;14.90;;;8.13;;
58864;SDS011;45702;52.982;6.658;2022-07-19T06:15:46;16.92;;;8.00;;
58864;SDS011;45702;52.982;6.658;2022-07-19T06:18:12;18.35;;;7.82;;
58864;SDS011;45702;52.982;6.658;2022-07-19T06:20:37;16.90;;;7.57;;
58864;SDS011;45702;52.982;6.658;2022-07-19T06:23:03;14.85;;;7.03;;
58864;SDS011;45702;52.982;6.658;2022-07-19T06:25:29;13.43;;;6.93;;
58864;SDS011;45702;52.982;6.658;2022-07-19T06:27:55;13.77;;;7.18;;
58864;SDS011;45702;52.982;6.658;2022-07-19T06:30:21;14.60;;;7.25;;
58864;SDS011;45702;52.982;6.658;2022-07-19T06:32:47;15.27;;;7.03;;
58864;SDS011;45702;52.982;6.658;2022-07-19T06:35:12;14.35;;;7.03;;
58864;SDS011;45702;52.982;6.658;2022-07-19T06:37:38;12.35;;;6.95;;
58864;SDS011;45702;52.982;6.658;2022-07-19T06:40:04;17.17;;;6.90;;
58864;SDS011;45702;52.982;6.658;2022-07-19T06:42:30;14.07;;;6.90;;
58864;SDS011;45702;52.982;6.658;2022-07-19T06:44:56;13.07;;;6.75;;
58864;SDS011;45702;52.982;6.658;2022-07-19T06:47:23;13.37;;;6.50;;
58864;SDS011;45702;52.982;6.658;2022-07-19T06:49:49;12.48;;;6.90;;
58864;SDS011;45702;52.982;6.658;2022-07-19T06:52:15;12.00;;;6.28;;
58864;SDS011;45702;52.982;6.658;2022-07-19T06:54:40;13.15;;;6.70;;
58864;SDS011;45702;52.982;6.658;2022-07-19T06:57:06;12.52;;;5.97;;
58864;SDS011;45702;52.982;6.658;2022-07-19T06:59:33;15.20;;;6.65;;
58864;SDS011;45702;52.982;6.658;2022-07-19T07:01:59;16.00;;;6.30;;
58864;SDS011;45702;52.982;6.658;2022-07-19T07:04:25;12.85;;;6.05;;
58864;SDS011;45702;52.982;6.658;2022-07-19T07:06:50;12.38;;;6.43;;
58864;SDS011;45702;52.982;6.658;2022-07-19T07:09:16;11.18;;;6.00;;
58864;SDS011;45702;52.982;6.658;2022-07-19T07:11:42;13.00;;;6.32;;
58864;SDS011;45702;52.982;6.658;2022-07-19T07:14:07;16.40;;;6.28;;
58864;SDS011;45702;52.982;6.658;2022-07-19T07:16:33;10.50;;;5.70;;
58864;SDS011;45702;52.982;6.658;2022-07-19T07:18:59;13.65;;;6.75;;
58864;SDS011;45702;52.982;6.658;2022-07-19T07:21:24;12.15;;;6.25;;
58864;SDS011;45702;52.982;6.658;2022-07-19T07:23:50;13.13;;;5.97;;
58864;SDS011;45702;52.982;6.658;2022-07-19T07:26:16;16.38;;;6.38;;
58864;SDS011;45702;52.982;6.658;2022-07-19T07:28:41;12.38;;;6.30;;
58864;SDS011;45702;52.982;6.658;2022-07-19T07:31:07;12.20;;;6.15;;
58864;SDS011;45702;52.982;6.658;2022-07-19T07:33:33;15.43;;;6.32;;
58864;SDS011;45702;52.982;6.658;2022-07-19T07:35:58;11.90;;;5.88;;
58864;SDS011;45702;52.982;6.658;2022-07-19T07:38:24;12.82;;;5.88;;
58864;SDS011;45702;52.982;6.658;2022-07-19T07:40:50;14.70;;;5.68;;
58864;SDS011;45702;52.982;6.658;2022-07-19T07:43:16;10.88;;;5.80;;
58864;SDS011;45702;52.982;6.658;2022-07-19T07:45:41;12.30;;;5.57;;
58864;SDS011;45702;52.982;6.658;2022-07-19T07:48:07;12.20;;;5.55;;
58864;SDS011;45702;52.982;6.658;2022-07-19T07:50:33;12.30;;;5.88;;
58864;SDS011;45702;52.982;6.658;2022-07-19T07:52:59;12.25;;;5.80;;
58864;SDS011;45702;52.982;6.658;2022-07-19T07:55:24;9.50;;;5.50;;
58864;SDS011;45702;52.982;6.658;2022-07-19T07:57:50;13.85;;;5.88;;
58864;SDS011;45702;52.982;6.658;2022-07-19T08:00:16;9.07;;;5.50;;
58864;SDS011;45702;52.982;6.658;2022-07-19T08:02:44;10.20;;;5.40;;
58864;SDS011;45702;52.982;6.658;2022-07-19T08:05:10;7.65;;;4.85;;
58864;SDS011;45702;52.982;6.658;2022-07-19T08:07:37;9.45;;;5.32;;
58864;SDS011;45702;52.982;6.658;2022-07-19T08:10:04;15.52;;;5.32;;
58864;SDS011;45702;52.982;6.658;2022-07-19T08:12:31;11.77;;;6.00;;
58864;SDS011;45702;52.982;6.658;2022-07-19T08:14:57;9.65;;;5.30;;
58864;SDS011;45702;52.982;6.658;2022-07-19T08:17:23;8.02;;;4.60;;
58864;SDS011;45702;52.982;6.658;2022-07-19T08:19:48;9.75;;;4.88;;
58864;SDS011;45702;52.982;6.658;2022-07-19T08:22:15;14.13;;;4.70;;
58864;SDS011;45702;52.982;6.658;2022-07-19T08:24:41;10.40;;;4.55;;
58864;SDS011;45702;52.982;6.658;2022-07-19T08:27:07;10.75;;;4.80;;
58864;SDS011;45702;52.982;6.658;2022-07-19T08:29:33;12.88;;;4.40;;
58864;SDS011;45702;52.982;6.658;2022-07-19T08:31:58;12.52;;;4.93;;
58864;SDS011;45702;52.982;6.658;2022-07-19T08:34:24;7.53;;;4.25;;
58864;SDS011;45702;52.982;6.658;2022-07-19T08:36:50;8.10;;;4.45;;
58864;SDS011;45702;52.982;6.658;2022-07-19T08:39:15;9.80;;;4.63;;
58864;SDS011;45702;52.982;6.658;2022-07-19T08:41:44;11.70;;;4.47;;
58864;SDS011;45702;52.982;6.658;2022-07-19T08:44:10;7.40;;;4.28;;
58864;SDS011;45702;52.982;6.658;2022-07-19T08:46:40;7.55;;;4.10;;
58864;SDS011;45702;52.982;6.658;2022-07-19T08:49:06;9.90;;;3.72;;
58864;SDS011;45702;52.982;6.658;2022-07-19T08:51:35;7.32;;;3.80;;
58864;SDS011;45702;52.982;6.658;2022-07-19T08:54:01;11.85;;;3.88;;
58864;SDS011;45702;52.982;6.658;2022-07-19T08:56:27;8.43;;;3.70;;
58864;SDS011;45702;52.982;6.658;2022-07-19T08:59:12;7.22;;;3.72;;
58864;SDS011;45702;52.982;6.658;2022-07-19T09:01:38;8.60;;;3.70;;
58864;SDS011;45702;52.982;6.658;2022-07-19T09:06:38;8.35;;;3.67;;
58864;SDS011;45702;52.982;6.658;2022-07-19T09:09:04;9.88;;;3.17;;
58864;SDS011;45702;52.982;6.658;2022-07-19T09:11:37;8.98;;;3.92;;
58864;SDS011;45702;52.982;6.658;2022-07-19T09:14:14;8.20;;;4.22;;
58864;SDS011;45702;52.982;6.658;2022-07-19T09:16:51;9.10;;;3.60;;
58864;SDS011;45702;52.982;6.658;2022-07-19T09:19:19;9.65;;;3.55;;
58864;SDS011;45702;52.982;6.658;2022-07-19T09:24:21;7.28;;;3.50;;
58864;SDS011;45702;52.982;6.658;2022-07-19T09:26:54;7.85;;;3.47;;
58864;SDS011;45702;52.982;6.658;2022-07-19T09:29:24;10.48;;;3.60;;
58864;SDS011;45702;52.982;6.658;2022-07-19T09:32:01;8.10;;;3.43;;
58864;SDS011;45702;52.982;6.658;2022-07-19T09:34:31;6.13;;;3.20;;
58864;SDS011;45702;52.982;6.658;2022-07-19T09:37:11;11.65;;;3.80;;
58864;SDS011;45702;52.982;6.658;2022-07-19T09:39:39;8.50;;;3.15;;
58864;SDS011;45702;52.982;6.658;2022-07-19T09:42:13;8.88;;;3.10;;
58864;SDS011;45702;52.982;6.658;2022-07-19T09:44:40;9.52;;;3.20;;
58864;SDS011;45702;52.982;6.658;2022-07-19T09:47:07;7.30;;;3.33;;
58864;SDS011;45702;52.982;6.658;2022-07-19T09:49:33;7.07;;;3.05;;
58864;SDS011;45702;52.982;6.658;2022-07-19T09:51:59;6.13;;;3.22;;
58864;SDS011;45702;52.982;6.658;2022-07-19T09:54:26;9.77;;;3.58;;
58864;SDS011;45702;52.982;6.658;2022-07-19T09:56:54;7.35;;;3.40;;
58864;SDS011;45702;52.982;6.658;2022-07-19T09:59:21;5.50;;;3.10;;
58864;SDS011;45702;52.982;6.658;2022-07-19T10:01:48;7.22;;;3.30;;
58864;SDS011;45702;52.982;6.658;2022-07-19T10:04:17;6.50;;;3.33;;
58864;SDS011;45702;52.982;6.658;2022-07-19T10:06:46;7.82;;;3.42;;
58864;SDS011;45702;52.982;6.658;2022-07-19T10:09:13;9.13;;;3.43;;
58864;SDS011;45702;52.982;6.658;2022-07-19T10:11:40;7.68;;;3.20;;
58864;SDS011;45702;52.982;6.658;2022-07-19T10:14:06;9.15;;;3.35;;
58864;SDS011;45702;52.982;6.658;2022-07-19T10:16:41;8.23;;;3.15;;
58864;SDS011;45702;52.982;6.658;2022-07-19T10:19:33;9.38;;;3.30;;
58864;SDS011;45702;52.982;6.658;2022-07-19T10:22:11;5.47;;;2.97;;
58864;SDS011;45702;52.982;6.658;2022-07-19T10:24:46;8.35;;;3.03;;
58864;SDS011;45702;52.982;6.658;2022-07-19T10:27:19;6.57;;;3.25;;
58864;SDS011;45702;52.982;6.658;2022-07-19T10:32:36;6.82;;;3.28;;
58864;SDS011;45702;52.982;6.658;2022-07-19T10:35:20;7.93;;;2.80;;
58864;SDS011;45702;52.982;6.658;2022-07-19T10:43:11;7.70;;;3.30;;
58864;SDS011;45702;52.982;6.658;2022-07-19T10:51:32;7.40;;;2.80;;
58864;SDS011;45702;52.982;6.658;2022-07-19T10:54:00;9.00;;;2.80;;
58864;SDS011;45702;52.982;6.658;2022-07-19T10:56:32;4.70;;;2.90;;
58864;SDS011;45702;52.982;6.658;2022-07-19T10:59:01;6.82;;;3.10;;
58864;SDS011;45702;52.982;6.658;2022-07-19T11:01:35;9.15;;;3.30;;
58864;SDS011;45702;52.982;6.658;2022-07-19T11:07:14;7.35;;;3.17;;
58864;SDS011;45702;52.982;6.658;2022-07-19T11:10:00;6.90;;;3.13;;
58864;SDS011;45702;52.982;6.658;2022-07-19T11:12:28;7.60;;;2.80;;
58864;SDS011;45702;52.982;6.658;2022-07-19T11:14:57;7.43;;;3.10;;
58864;SDS011;45702;52.982;6.658;2022-07-19T11:20:00;5.25;;;3.20;;
58864;SDS011;45702;52.982;6.658;2022-07-19T11:22:26;6.60;;;3.40;;
58864;SDS011;45702;52.982;6.658;2022-07-19T11:24:57;7.60;;;3.03;;
58864;SDS011;45702;52.982;6.658;2022-07-19T11:27:23;16.60;;;3.42;;
58864;SDS011;45702;52.982;6.658;2022-07-19T11:29:56;6.70;;;2.90;;
58864;SDS011;45702;52.982;6.658;2022-07-19T11:32:23;5.28;;;3.00;;
58864;SDS011;45702;52.982;6.658;2022-07-19T11:34:56;4.20;;;2.97;;
58864;SDS011;45702;52.982;6.658;2022-07-19T11:37:24;6.13;;;3.10;;
58864;SDS011;45702;52.982;6.658;2022-07-19T11:39:52;8.48;;;3.08;;
58864;SDS011;45702;52.982;6.658;2022-07-19T11:42:37;6.63;;;2.80;;
58864;SDS011;45702;52.982;6.658;2022-07-19T11:47:42;8.77;;;3.00;;
58864;SDS011;45702;52.982;6.658;2022-07-19T11:50:19;9.57;;;3.47;;
58864;SDS011;45702;52.982;6.658;2022-07-19T11:55:17;7.10;;;3.20;;
58864;SDS011;45702;52.982;6.658;2022-07-19T11:57:45;7.15;;;3.13;;
58864;SDS011;45702;52.982;6.658;2022-07-19T12:00:11;8.05;;;3.22;;
58864;SDS011;45702;52.982;6.658;2022-07-19T12:02:59;8.15;;;2.90;;
58864;SDS011;45702;52.982;6.658;2022-07-19T12:05:34;6.32;;;3.17;;
58864;SDS011;45702;52.982;6.658;2022-07-19T12:08:03;9.23;;;3.22;;
58864;SDS011;45702;52.982;6.658;2022-07-19T12:10:43;10.38;;;3.10;;
58864;SDS011;45702;52.982;6.658;2022-07-19T12:13:11;6.85;;;3.22;;
58864;SDS011;45702;52.982;6.658;2022-07-19T12:18:14;10.75;;;3.58;;
58864;SDS011;45702;52.982;6.658;2022-07-19T12:20:42;9.13;;;3.10;;
58864;SDS011;45702;52.982;6.658;2022-07-19T12:23:18;11.15;;;3.30;;
58864;SDS011;45702;52.982;6.658;2022-07-19T12:25:44;4.57;;;2.80;;
58864;SDS011;45702;52.982;6.658;2022-07-19T12:28:10;7.63;;;2.90;;
58864;SDS011;45702;52.982;6.658;2022-07-19T12:30:36;12.70;;;2.80;;
58864;SDS011;45702;52.982;6.658;2022-07-19T12:33:12;10.57;;;3.20;;
58864;SDS011;45702;52.982;6.658;2022-07-19T12:35:45;7.00;;;2.87;;
58864;SDS011;45702;52.982;6.658;2022-07-19T12:38:12;7.50;;;3.13;;
58864;SDS011;45702;52.982;6.658;2022-07-19T12:40:41;5.93;;;3.00;;
58864;SDS011;45702;52.982;6.658;2022-07-19T12:43:08;7.75;;;2.60;;
58864;SDS011;45702;52.982;6.658;2022-07-19T12:45:44;6.63;;;2.70;;
58864;SDS011;45702;52.982;6.658;2022-07-19T12:48:12;4.70;;;2.85;;
58864;SDS011;45702;52.982;6.658;2022-07-19T12:50:44;5.47;;;2.90;;
58864;SDS011;45702;52.982;6.658;2022-07-19T12:53:17;9.40;;;3.00;;
58864;SDS011;45702;52.982;6.658;2022-07-19T12:55:43;7.10;;;2.75;;
58864;SDS011;45702;52.982;6.658;2022-07-19T12:58:09;5.75;;;2.72;;
58864;SDS011;45702;52.982;6.658;2022-07-19T13:03:03;11.38;;;2.55;;
58864;SDS011;45702;52.982;6.658;2022-07-19T13:05:30;7.30;;;2.55;;
58864;SDS011;45702;52.982;6.658;2022-07-19T13:07:56;4.63;;;2.47;;
58864;SDS011;45702;52.982;6.658;2022-07-19T13:10:23;5.43;;;2.25;;
58864;SDS011;45702;52.982;6.658;2022-07-19T13:12:49;9.70;;;2.42;;
58864;SDS011;45702;52.982;6.658;2022-07-19T13:15:15;6.78;;;2.40;;
58864;SDS011;45702;52.982;6.658;2022-07-19T13:17:41;4.63;;;2.90;;
58864;SDS011;45702;52.982;6.658;2022-07-19T13:20:07;8.30;;;2.63;;
58864;SDS011;45702;52.982;6.658;2022-07-19T13:22:34;10.45;;;3.08;;
58864;SDS011;45702;52.982;6.658;2022-07-19T13:25:06;6.90;;;2.53;;
58864;SDS011;45702;52.982;6.658;2022-07-19T13:27:32;7.97;;;2.30;;
58864;SDS011;45702;52.982;6.658;2022-07-19T13:29:58;5.18;;;2.40;;
58864;SDS011;45702;52.982;6.658;2022-07-19T13:32:24;8.30;;;2.38;;
58864;SDS011;45702;52.982;6.658;2022-07-19T13:34:50;3.35;;;2.30;;
58864;SDS011;45702;52.982;6.658;2022-07-19T13:37:16;7.28;;;2.30;;
58864;SDS011;45702;52.982;6.658;2022-07-19T13:39:41;5.72;;;2.00;;
58864;SDS011;45702;52.982;6.658;2022-07-19T13:42:07;4.82;;;2.05;;
58864;SDS011;45702;52.982;6.658;2022-07-19T13:44:33;6.50;;;2.28;;
58864;SDS011;45702;52.982;6.658;2022-07-19T13:46:59;7.75;;;2.08;;
58864;SDS011;45702;52.982;6.658;2022-07-19T13:49:24;9.30;;;2.45;;
58864;SDS011;45702;52.982;6.658;2022-07-19T13:51:50;13.57;;;2.50;;
58864;SDS011;45702;52.982;6.658;2022-07-19T13:54:17;9.88;;;2.60;;
58864;SDS011;45702;52.982;6.658;2022-07-19T13:56:43;10.27;;;2.60;;
58864;SDS011;45702;52.982;6.658;2022-07-19T13:59:08;3.88;;;2.40;;
58864;SDS011;45702;52.982;6.658;2022-07-19T14:01:34;5.45;;;2.40;;
58864;SDS011;45702;52.982;6.658;2022-07-19T14:04:00;14.13;;;2.60;;
58864;SDS011;45702;52.982;6.658;2022-07-19T14:06:26;10.48;;;2.45;;
58864;SDS011;45702;52.982;6.658;2022-07-19T14:08:52;6.25;;;2.45;;
58864;SDS011;45702;52.982;6.658;2022-07-19T14:11:19;8.65;;;2.70;;
58864;SDS011;45702;52.982;6.658;2022-07-19T14:13:45;9.05;;;2.22;;
58864;SDS011;45702;52.982;6.658;2022-07-19T14:16:11;16.02;;;2.75;;
58864;SDS011;45702;52.982;6.658;2022-07-19T14:18:36;5.22;;;2.30;;
58864;SDS011;45702;52.982;6.658;2022-07-19T14:21:02;5.93;;;2.15;;
58864;SDS011;45702;52.982;6.658;2022-07-19T14:23:28;9.60;;;2.40;;
58864;SDS011;45702;52.982;6.658;2022-07-19T14:25:54;6.88;;;2.33;;
58864;SDS011;45702;52.982;6.658;2022-07-19T14:28:20;3.58;;;2.22;;
58864;SDS011;45702;52.982;6.658;2022-07-19T14:30:46;9.02;;;2.33;;
58864;SDS011;45702;52.982;6.658;2022-07-19T14:33:11;7.28;;;2.40;;
58864;SDS011;45702;52.982;6.658;2022-07-19T14:35:37;5.63;;;2.20;;
58864;SDS011;45702;52.982;6.658;2022-07-19T14:38:03;5.95;;;2.63;;
58864;SDS011;45702;52.982;6.658;2022-07-19T14:40:29;7.20;;;2.60;;
58864;SDS011;45702;52.982;6.658;2022-07-19T14:42:55;6.07;;;2.42;;
58864;SDS011;45702;52.982;6.658;2022-07-19T14:45:21;5.68;;;2.42;;
58864;SDS011;45702;52.982;6.658;2022-07-19T14:47:46;4.85;;;2.30;;
58864;SDS011;45702;52.982;6.658;2022-07-19T14:50:12;6.80;;;2.30;;
58864;SDS011;45702;52.982;6.658;2022-07-19T14:52:39;5.73;;;2.67;;
58864;SDS011;45702;52.982;6.658;2022-07-19T14:55:05;7.82;;;2.60;;
58864;SDS011;45702;52.982;6.658;2022-07-19T14:57:32;4.70;;;2.97;;
58864;SDS011;45702;52.982;6.658;2022-07-19T14:59:58;6.72;;;2.10;;
58864;SDS011;45702;52.982;6.658;2022-07-19T15:02:23;5.85;;;2.40;;
58864;SDS011;45702;52.982;6.658;2022-07-19T15:04:49;3.85;;;2.25;;
58864;SDS011;45702;52.982;6.658;2022-07-19T15:07:16;5.85;;;2.30;;
58864;SDS011;45702;52.982;6.658;2022-07-19T15:09:41;5.93;;;2.20;;
58864;SDS011;45702;52.982;6.658;2022-07-19T15:12:07;3.92;;;2.40;;